sensor_id;sensor_type;location;lat;lon;timestamp;P1;durP1;ratioP1;P2;durP2;ratioP2
58101;SDS011;52034;51.926;6.320;2023-05-25T00:00:43;12.87;;;6.50;;
58101;SDS011;52034;51.926;6.320;2023-05-25T00:01:44;10.50;;;5.90;;
58101;SDS011;52034;51.926;6.320;2023-05-25T00:02:47;16.42;;;6.55;;
58101;SDS011;52034;51.926;6.320;2023-05-25T00:03:48;12.33;;;6.43;;
58101;SDS011;52034;51.926;6.320;2023-05-25T00:04:48;15.23;;;6.50;;
58101;SDS011;52034;51.926;6.320;2023-05-25T00:05:49;13.40;;;6.30;;
58101;SDS011;52034;51.926;6.320;2023-05-25T00:06:52;14.13;;;6.60;;
58101;SDS011;52034;51.926;6.320;2023-05-25T00:07:53;9.80;;;5.90;;
58101;SDS011;52034;51.926;6.320;2023-05-25T00:08:56;13.25;;;6.20;;
58101;SDS011;52034;51.926;6.320;2023-05-25T00:09:57;12.73;;;6.50;;
58101;SDS011;52034;51.926;6.320;2023-05-25T00:10:57;12.87;;;6.27;;
58101;SDS011;52034;51.926;6.320;2023-05-25T00:11:58;14.90;;;6.57;;
58101;SDS011;52034;51.926;6.320;2023-05-25T00:12:58;13.67;;;6.90;;
58101;SDS011;52034;51.926;6.320;2023-05-25T00:13:59;12.93;;;6.63;;
58101;SDS011;52034;51.926;6.320;2023-05-25T00:14:59;13.63;;;6.47;;
58101;SDS011;52034;51.926;6.320;2023-05-25T00:16:00;19.57;;;7.30;;
58101;SDS011;52034;51.926;6.320;2023-05-25T00:17:00;13.10;;;6.53;;
58101;SDS011;52034;51.926;6.320;2023-05-25T00:18:03;15.35;;;6.53;;
58101;SDS011;52034;51.926;6.320;2023-05-25T00:19:06;13.13;;;6.57;;
58101;SDS011;52034;51.926;6.320;2023-05-25T00:20:09;14.30;;;6.60;;
58101;SDS011;52034;51.926;6.320;2023-05-25T00:21:10;11.87;;;6.57;;
58101;SDS011;52034;51.926;6.320;2023-05-25T00:22:10;12.47;;;7.37;;
58101;SDS011;52034;51.926;6.320;2023-05-25T00:23:11;13.60;;;6.43;;
58101;SDS011;52034;51.926;6.320;2023-05-25T00:24:11;14.53;;;6.53;;
58101;SDS011;52034;51.926;6.320;2023-05-25T00:25:11;12.60;;;6.20;;
58101;SDS011;52034;51.926;6.320;2023-05-25T00:26:12;11.63;;;6.50;;
58101;SDS011;52034;51.926;6.320;2023-05-25T00:27:12;11.07;;;6.03;;
58101;SDS011;52034;51.926;6.320;2023-05-25T00:28:12;13.43;;;7.50;;
58101;SDS011;52034;51.926;6.320;2023-05-25T00:29:12;14.23;;;6.50;;
58101;SDS011;52034;51.926;6.320;2023-05-25T00:30:14;13.85;;;6.85;;
58101;SDS011;52034;51.926;6.320;2023-05-25T00:31:14;12.40;;;6.67;;
58101;SDS011;52034;51.926;6.320;2023-05-25T00:32:14;11.07;;;6.80;;
58101;SDS011;52034;51.926;6.320;2023-05-25T00:33:15;13.37;;;6.73;;
58101;SDS011;52034;51.926;6.320;2023-05-25T00:34:16;12.07;;;6.20;;
58101;SDS011;52034;51.926;6.320;2023-05-25T00:35:16;11.18;;;5.72;;
58101;SDS011;52034;51.926;6.320;2023-05-25T00:36:17;14.63;;;7.30;;
58101;SDS011;52034;51.926;6.320;2023-05-25T00:37:17;12.73;;;6.50;;
58101;SDS011;52034;51.926;6.320;2023-05-25T00:38:17;15.90;;;6.57;;
58101;SDS011;52034;51.926;6.320;2023-05-25T00:39:18;13.10;;;6.70;;
58101;SDS011;52034;51.926;6.320;2023-05-25T00:40:19;14.20;;;6.90;;
58101;SDS011;52034;51.926;6.320;2023-05-25T00:41:20;13.05;;;6.90;;
58101;SDS011;52034;51.926;6.320;2023-05-25T00:42:21;11.93;;;6.43;;
58101;SDS011;52034;51.926;6.320;2023-05-25T00:43:22;11.80;;;6.25;;
58101;SDS011;52034;51.926;6.320;2023-05-25T00:44:23;14.67;;;6.53;;
58101;SDS011;52034;51.926;6.320;2023-05-25T00:45:23;12.63;;;6.23;;
58101;SDS011;52034;51.926;6.320;2023-05-25T00:46:23;13.97;;;6.80;;
58101;SDS011;52034;51.926;6.320;2023-05-25T00:47:26;16.63;;;6.75;;
58101;SDS011;52034;51.926;6.320;2023-05-25T00:48:26;13.35;;;6.90;;
58101;SDS011;52034;51.926;6.320;2023-05-25T00:49:26;13.40;;;6.50;;
58101;SDS011;52034;51.926;6.320;2023-05-25T00:50:40;13.38;;;6.65;;
58101;SDS011;52034;51.926;6.320;2023-05-25T00:51:41;12.95;;;7.03;;
58101;SDS011;52034;51.926;6.320;2023-05-25T00:52:47;15.38;;;7.03;;
58101;SDS011;52034;51.926;6.320;2023-05-25T00:53:48;13.50;;;6.53;;
58101;SDS011;52034;51.926;6.320;2023-05-25T00:54:49;14.23;;;6.70;;
58101;SDS011;52034;51.926;6.320;2023-05-25T00:56:01;11.40;;;6.78;;
58101;SDS011;52034;51.926;6.320;2023-05-25T00:57:05;16.08;;;6.93;;
58101;SDS011;52034;51.926;6.320;2023-05-25T00:58:06;14.27;;;6.75;;
58101;SDS011;52034;51.926;6.320;2023-05-25T00:59:09;16.55;;;7.03;;
58101;SDS011;52034;51.926;6.320;2023-05-25T01:00:14;12.48;;;6.80;;
58101;SDS011;52034;51.926;6.320;2023-05-25T01:01:15;12.02;;;6.85;;
58101;SDS011;52034;51.926;6.320;2023-05-25T01:03:19;15.90;;;6.85;;
58101;SDS011;52034;51.926;6.320;2023-05-25T01:04:26;16.88;;;7.00;;
58101;SDS011;52034;51.926;6.320;2023-05-25T01:05:28;16.83;;;7.38;;
58101;SDS011;52034;51.926;6.320;2023-05-25T01:06:30;16.17;;;7.65;;
58101;SDS011;52034;51.926;6.320;2023-05-25T01:07:32;15.02;;;6.40;;
58101;SDS011;52034;51.926;6.320;2023-05-25T01:08:34;15.73;;;6.80;;
58101;SDS011;52034;51.926;6.320;2023-05-25T01:10:38;19.05;;;7.82;;
58101;SDS011;52034;51.926;6.320;2023-05-25T01:11:43;14.57;;;7.13;;
58101;SDS011;52034;51.926;6.320;2023-05-25T01:12:47;15.70;;;7.20;;
58101;SDS011;52034;51.926;6.320;2023-05-25T01:13:50;14.30;;;7.03;;
58101;SDS011;52034;51.926;6.320;2023-05-25T01:14:52;13.75;;;7.10;;
58101;SDS011;52034;51.926;6.320;2023-05-25T01:15:54;16.77;;;7.40;;
58101;SDS011;52034;51.926;6.320;2023-05-25T01:16:55;13.47;;;7.07;;
58101;SDS011;52034;51.926;6.320;2023-05-25T01:17:57;15.73;;;7.55;;
58101;SDS011;52034;51.926;6.320;2023-05-25T01:18:58;13.63;;;6.93;;
58101;SDS011;52034;51.926;6.320;2023-05-25T01:19:59;15.70;;;7.27;;
58101;SDS011;52034;51.926;6.320;2023-05-25T01:21:08;15.23;;;7.38;;
58101;SDS011;52034;51.926;6.320;2023-05-25T01:22:19;13.43;;;6.68;;
58101;SDS011;52034;51.926;6.320;2023-05-25T01:23:41;16.42;;;7.78;;
58101;SDS011;52034;51.926;6.320;2023-05-25T01:24:50;18.42;;;7.68;;
58101;SDS011;52034;51.926;6.320;2023-05-25T01:25:54;17.02;;;7.05;;
58101;SDS011;52034;51.926;6.320;2023-05-25T01:27:03;15.68;;;7.00;;
58101;SDS011;52034;51.926;6.320;2023-05-25T01:28:14;13.25;;;7.10;;
58101;SDS011;52034;51.926;6.320;2023-05-25T01:29:17;13.60;;;7.55;;
58101;SDS011;52034;51.926;6.320;2023-05-25T01:30:19;15.15;;;7.63;;
58101;SDS011;52034;51.926;6.320;2023-05-25T01:31:25;19.73;;;7.95;;
58101;SDS011;52034;51.926;6.320;2023-05-25T01:32:25;16.70;;;7.82;;
58101;SDS011;52034;51.926;6.320;2023-05-25T01:33:27;14.90;;;7.72;;
58101;SDS011;52034;51.926;6.320;2023-05-25T01:34:30;17.23;;;7.68;;
58101;SDS011;52034;51.926;6.320;2023-05-25T01:35:32;14.60;;;7.20;;
58101;SDS011;52034;51.926;6.320;2023-05-25T01:36:33;16.67;;;7.55;;
58101;SDS011;52034;51.926;6.320;2023-05-25T01:37:34;15.63;;;6.93;;
58101;SDS011;52034;51.926;6.320;2023-05-25T01:38:38;19.50;;;8.32;;
58101;SDS011;52034;51.926;6.320;2023-05-25T01:39:39;15.57;;;7.80;;
58101;SDS011;52034;51.926;6.320;2023-05-25T01:40:41;13.45;;;7.13;;
58101;SDS011;52034;51.926;6.320;2023-05-25T01:41:41;17.17;;;7.50;;
58101;SDS011;52034;51.926;6.320;2023-05-25T01:42:41;13.43;;;7.80;;
58101;SDS011;52034;51.926;6.320;2023-05-25T01:43:42;15.00;;;8.47;;
58101;SDS011;52034;51.926;6.320;2023-05-25T01:44:43;15.88;;;7.70;;
58101;SDS011;52034;51.926;6.320;2023-05-25T01:45:44;17.40;;;8.05;;
58101;SDS011;52034;51.926;6.320;2023-05-25T01:46:46;16.77;;;7.50;;
58101;SDS011;52034;51.926;6.320;2023-05-25T01:48:00;13.70;;;7.28;;
58101;SDS011;52034;51.926;6.320;2023-05-25T01:49:31;13.50;;;7.32;;
58101;SDS011;52034;51.926;6.320;2023-05-25T01:50:59;14.73;;;7.32;;
58101;SDS011;52034;51.926;6.320;2023-05-25T01:53:17;19.40;;;8.35;;
58101;SDS011;52034;51.926;6.320;2023-05-25T01:54:21;14.20;;;8.77;;
58101;SDS011;52034;51.926;6.320;2023-05-25T01:55:36;15.98;;;8.55;;
58101;SDS011;52034;51.926;6.320;2023-05-25T01:56:41;15.48;;;7.40;;
58101;SDS011;52034;51.926;6.320;2023-05-25T01:57:49;15.68;;;8.23;;
58101;SDS011;52034;51.926;6.320;2023-05-25T01:58:56;16.13;;;8.27;;
58101;SDS011;52034;51.926;6.320;2023-05-25T01:59:58;15.63;;;8.15;;
58101;SDS011;52034;51.926;6.320;2023-05-25T02:01:01;17.50;;;8.40;;
58101;SDS011;52034;51.926;6.320;2023-05-25T02:02:02;15.30;;;7.90;;
58101;SDS011;52034;51.926;6.320;2023-05-25T02:03:04;14.55;;;7.95;;
58101;SDS011;52034;51.926;6.320;2023-05-25T02:04:04;14.90;;;8.43;;
58101;SDS011;52034;51.926;6.320;2023-05-25T02:05:05;16.92;;;8.48;;
58101;SDS011;52034;51.926;6.320;2023-05-25T02:06:06;13.38;;;7.45;;
58101;SDS011;52034;51.926;6.320;2023-05-25T02:07:08;18.40;;;8.10;;
58101;SDS011;52034;51.926;6.320;2023-05-25T02:08:09;17.65;;;8.13;;
58101;SDS011;52034;51.926;6.320;2023-05-25T02:09:10;16.00;;;8.23;;
58101;SDS011;52034;51.926;6.320;2023-05-25T02:10:11;16.10;;;8.30;;
58101;SDS011;52034;51.926;6.320;2023-05-25T02:11:13;17.83;;;7.33;;
58101;SDS011;52034;51.926;6.320;2023-05-25T02:12:14;14.40;;;7.38;;
58101;SDS011;52034;51.926;6.320;2023-05-25T02:13:14;17.07;;;8.97;;
58101;SDS011;52034;51.926;6.320;2023-05-25T02:14:15;17.47;;;8.23;;
58101;SDS011;52034;51.926;6.320;2023-05-25T02:15:16;15.63;;;8.20;;
58101;SDS011;52034;51.926;6.320;2023-05-25T02:16:17;15.82;;;8.52;;
58101;SDS011;52034;51.926;6.320;2023-05-25T02:18:19;14.90;;;8.40;;
58101;SDS011;52034;51.926;6.320;2023-05-25T02:19:19;17.40;;;8.87;;
58101;SDS011;52034;51.926;6.320;2023-05-25T02:20:19;18.03;;;8.53;;
58101;SDS011;52034;51.926;6.320;2023-05-25T02:21:20;16.07;;;8.00;;
58101;SDS011;52034;51.926;6.320;2023-05-25T02:22:21;15.67;;;8.17;;
58101;SDS011;52034;51.926;6.320;2023-05-25T02:23:21;15.98;;;8.48;;
58101;SDS011;52034;51.926;6.320;2023-05-25T02:24:23;13.67;;;8.30;;
58101;SDS011;52034;51.926;6.320;2023-05-25T02:25:24;17.13;;;8.48;;
58101;SDS011;52034;51.926;6.320;2023-05-25T02:26:24;15.00;;;9.07;;
58101;SDS011;52034;51.926;6.320;2023-05-25T02:27:25;14.88;;;8.43;;
58101;SDS011;52034;51.926;6.320;2023-05-25T02:28:25;17.77;;;8.13;;
58101;SDS011;52034;51.926;6.320;2023-05-25T02:29:26;14.53;;;8.07;;
58101;SDS011;52034;51.926;6.320;2023-05-25T02:30:27;13.48;;;8.30;;
58101;SDS011;52034;51.926;6.320;2023-05-25T02:31:30;14.00;;;7.95;;
58101;SDS011;52034;51.926;6.320;2023-05-25T02:32:31;15.70;;;8.23;;
58101;SDS011;52034;51.926;6.320;2023-05-25T02:33:32;11.15;;;7.70;;
58101;SDS011;52034;51.926;6.320;2023-05-25T02:34:33;17.63;;;8.37;;
58101;SDS011;52034;51.926;6.320;2023-05-25T02:35:33;11.10;;;8.10;;
58101;SDS011;52034;51.926;6.320;2023-05-25T02:36:34;13.43;;;7.87;;
58101;SDS011;52034;51.926;6.320;2023-05-25T02:37:37;14.05;;;8.00;;
58101;SDS011;52034;51.926;6.320;2023-05-25T02:38:38;15.03;;;8.23;;
58101;SDS011;52034;51.926;6.320;2023-05-25T02:39:38;14.93;;;9.43;;
58101;SDS011;52034;51.926;6.320;2023-05-25T02:40:39;18.17;;;9.10;;
58101;SDS011;52034;51.926;6.320;2023-05-25T02:41:39;17.00;;;9.03;;
58101;SDS011;52034;51.926;6.320;2023-05-25T02:42:40;12.25;;;8.70;;
58101;SDS011;52034;51.926;6.320;2023-05-25T02:43:41;16.67;;;9.17;;
58101;SDS011;52034;51.926;6.320;2023-05-25T02:44:41;14.73;;;8.50;;
58101;SDS011;52034;51.926;6.320;2023-05-25T02:45:47;11.60;;;7.72;;
58101;SDS011;52034;51.926;6.320;2023-05-25T02:46:47;16.80;;;9.17;;
58101;SDS011;52034;51.926;6.320;2023-05-25T02:47:47;12.83;;;8.03;;
58101;SDS011;52034;51.926;6.320;2023-05-25T02:48:49;15.23;;;8.40;;
58101;SDS011;52034;51.926;6.320;2023-05-25T02:49:49;12.05;;;8.45;;
58101;SDS011;52034;51.926;6.320;2023-05-25T02:50:51;15.45;;;8.90;;
58101;SDS011;52034;51.926;6.320;2023-05-25T02:51:51;11.97;;;8.37;;
58101;SDS011;52034;51.926;6.320;2023-05-25T02:52:52;16.60;;;9.10;;
58101;SDS011;52034;51.926;6.320;2023-05-25T02:53:52;16.33;;;8.80;;
58101;SDS011;52034;51.926;6.320;2023-05-25T02:54:52;18.23;;;10.00;;
58101;SDS011;52034;51.926;6.320;2023-05-25T02:55:59;14.55;;;8.77;;
58101;SDS011;52034;51.926;6.320;2023-05-25T02:57:05;17.25;;;10.10;;
58101;SDS011;52034;51.926;6.320;2023-05-25T02:58:05;13.63;;;9.33;;
58101;SDS011;52034;51.926;6.320;2023-05-25T02:59:23;17.80;;;8.55;;
58101;SDS011;52034;51.926;6.320;2023-05-25T03:00:24;18.10;;;8.67;;
58101;SDS011;52034;51.926;6.320;2023-05-25T03:01:24;15.77;;;8.30;;
58101;SDS011;52034;51.926;6.320;2023-05-25T03:02:29;16.20;;;9.38;;
58101;SDS011;52034;51.926;6.320;2023-05-25T03:03:30;14.50;;;8.03;;
58101;SDS011;52034;51.926;6.320;2023-05-25T03:04:31;18.00;;;9.73;;
58101;SDS011;52034;51.926;6.320;2023-05-25T03:05:33;14.70;;;8.88;;
58101;SDS011;52034;51.926;6.320;2023-05-25T03:06:34;22.35;;;11.35;;
58101;SDS011;52034;51.926;6.320;2023-05-25T03:07:41;15.95;;;9.38;;
58101;SDS011;52034;51.926;6.320;2023-05-25T03:08:42;13.70;;;8.37;;
58101;SDS011;52034;51.926;6.320;2023-05-25T03:09:42;16.00;;;9.50;;
58101;SDS011;52034;51.926;6.320;2023-05-25T03:10:43;21.33;;;10.20;;
58101;SDS011;52034;51.926;6.320;2023-05-25T03:11:44;15.00;;;9.70;;
58101;SDS011;52034;51.926;6.320;2023-05-25T03:12:48;15.38;;;8.60;;
58101;SDS011;52034;51.926;6.320;2023-05-25T03:13:49;16.17;;;9.00;;
58101;SDS011;52034;51.926;6.320;2023-05-25T03:14:51;21.38;;;9.77;;
58101;SDS011;52034;51.926;6.320;2023-05-25T03:15:53;16.88;;;9.60;;
58101;SDS011;52034;51.926;6.320;2023-05-25T03:16:53;14.33;;;8.83;;
58101;SDS011;52034;51.926;6.320;2023-05-25T03:17:55;17.48;;;10.55;;
58101;SDS011;52034;51.926;6.320;2023-05-25T03:19:03;16.73;;;9.73;;
58101;SDS011;52034;51.926;6.320;2023-05-25T03:20:06;16.20;;;8.77;;
58101;SDS011;52034;51.926;6.320;2023-05-25T03:21:12;16.90;;;9.15;;
58101;SDS011;52034;51.926;6.320;2023-05-25T03:22:12;18.43;;;9.90;;
58101;SDS011;52034;51.926;6.320;2023-05-25T03:23:13;15.03;;;8.23;;
58101;SDS011;52034;51.926;6.320;2023-05-25T03:24:13;22.17;;;9.63;;
58101;SDS011;52034;51.926;6.320;2023-05-25T03:25:14;18.33;;;10.03;;
58101;SDS011;52034;51.926;6.320;2023-05-25T03:26:14;17.93;;;9.77;;
58101;SDS011;52034;51.926;6.320;2023-05-25T03:27:17;16.08;;;10.00;;
58101;SDS011;52034;51.926;6.320;2023-05-25T03:28:18;18.02;;;9.35;;
58101;SDS011;52034;51.926;6.320;2023-05-25T03:29:19;17.60;;;9.70;;
58101;SDS011;52034;51.926;6.320;2023-05-25T03:30:20;15.57;;;9.87;;
58101;SDS011;52034;51.926;6.320;2023-05-25T03:31:21;14.82;;;9.15;;
58101;SDS011;52034;51.926;6.320;2023-05-25T03:32:22;17.23;;;9.57;;
58101;SDS011;52034;51.926;6.320;2023-05-25T03:33:23;18.10;;;9.13;;
58101;SDS011;52034;51.926;6.320;2023-05-25T03:34:23;18.30;;;9.63;;
58101;SDS011;52034;51.926;6.320;2023-05-25T03:35:25;17.95;;;9.18;;
58101;SDS011;52034;51.926;6.320;2023-05-25T03:36:25;22.13;;;9.37;;
58101;SDS011;52034;51.926;6.320;2023-05-25T03:37:31;15.90;;;9.07;;
58101;SDS011;52034;51.926;6.320;2023-05-25T03:38:32;15.07;;;8.95;;
58101;SDS011;52034;51.926;6.320;2023-05-25T03:39:32;19.63;;;9.67;;
58101;SDS011;52034;51.926;6.320;2023-05-25T03:40:33;17.10;;;9.17;;
58101;SDS011;52034;51.926;6.320;2023-05-25T03:41:33;14.50;;;8.57;;
58101;SDS011;52034;51.926;6.320;2023-05-25T03:42:34;18.43;;;9.17;;
58101;SDS011;52034;51.926;6.320;2023-05-25T03:43:34;16.95;;;9.43;;
58101;SDS011;52034;51.926;6.320;2023-05-25T03:44:36;15.32;;;9.48;;
58101;SDS011;52034;51.926;6.320;2023-05-25T03:45:36;17.40;;;9.00;;
58101;SDS011;52034;51.926;6.320;2023-05-25T03:46:37;18.43;;;9.33;;
58101;SDS011;52034;51.926;6.320;2023-05-25T03:47:37;18.47;;;9.90;;
58101;SDS011;52034;51.926;6.320;2023-05-25T03:48:37;15.03;;;9.67;;
58101;SDS011;52034;51.926;6.320;2023-05-25T03:49:38;18.43;;;10.13;;
58101;SDS011;52034;51.926;6.320;2023-05-25T03:50:38;22.47;;;9.77;;
58101;SDS011;52034;51.926;6.320;2023-05-25T03:51:40;14.20;;;9.93;;
58101;SDS011;52034;51.926;6.320;2023-05-25T03:52:41;17.70;;;10.07;;
58101;SDS011;52034;51.926;6.320;2023-05-25T03:53:42;14.80;;;9.33;;
58101;SDS011;52034;51.926;6.320;2023-05-25T03:54:42;15.83;;;9.40;;
58101;SDS011;52034;51.926;6.320;2023-05-25T03:55:42;16.83;;;9.47;;
58101;SDS011;52034;51.926;6.320;2023-05-25T03:56:43;16.40;;;10.47;;
58101;SDS011;52034;51.926;6.320;2023-05-25T03:57:43;16.67;;;9.60;;
58101;SDS011;52034;51.926;6.320;2023-05-25T03:58:43;17.80;;;10.20;;
58101;SDS011;52034;51.926;6.320;2023-05-25T03:59:44;15.10;;;9.33;;
58101;SDS011;52034;51.926;6.320;2023-05-25T04:00:44;18.77;;;10.17;;
58101;SDS011;52034;51.926;6.320;2023-05-25T04:01:45;15.83;;;9.70;;
58101;SDS011;52034;51.926;6.320;2023-05-25T04:02:46;16.35;;;9.70;;
58101;SDS011;52034;51.926;6.320;2023-05-25T04:03:47;14.85;;;10.15;;
58101;SDS011;52034;51.926;6.320;2023-05-25T04:04:48;17.20;;;9.93;;
58101;SDS011;52034;51.926;6.320;2023-05-25T04:05:51;17.63;;;9.85;;
58101;SDS011;52034;51.926;6.320;2023-05-25T04:06:52;18.57;;;10.17;;
58101;SDS011;52034;51.926;6.320;2023-05-25T04:07:53;23.30;;;10.30;;
58101;SDS011;52034;51.926;6.320;2023-05-25T04:08:53;19.57;;;10.83;;
58101;SDS011;52034;51.926;6.320;2023-05-25T04:09:54;17.27;;;10.30;;
58101;SDS011;52034;51.926;6.320;2023-05-25T04:10:57;18.45;;;9.98;;
58101;SDS011;52034;51.926;6.320;2023-05-25T04:11:57;18.07;;;9.47;;
58101;SDS011;52034;51.926;6.320;2023-05-25T04:12:57;18.07;;;9.90;;
58101;SDS011;52034;51.926;6.320;2023-05-25T04:13:58;16.40;;;10.10;;
58101;SDS011;52034;51.926;6.320;2023-05-25T04:15:02;18.52;;;10.63;;
58101;SDS011;52034;51.926;6.320;2023-05-25T04:16:05;19.67;;;11.27;;
58101;SDS011;52034;51.926;6.320;2023-05-25T04:17:06;16.60;;;10.50;;
58101;SDS011;52034;51.926;6.320;2023-05-25T04:18:06;14.13;;;9.03;;
58101;SDS011;52034;51.926;6.320;2023-05-25T04:19:06;21.30;;;10.70;;
58101;SDS011;52034;51.926;6.320;2023-05-25T04:20:07;16.50;;;9.80;;
58101;SDS011;52034;51.926;6.320;2023-05-25T04:21:08;17.70;;;9.80;;
58101;SDS011;52034;51.926;6.320;2023-05-25T04:22:08;17.27;;;10.73;;
58101;SDS011;52034;51.926;6.320;2023-05-25T04:23:09;16.77;;;9.50;;
58101;SDS011;52034;51.926;6.320;2023-05-25T04:24:10;19.85;;;10.02;;
58101;SDS011;52034;51.926;6.320;2023-05-25T04:25:10;18.00;;;10.23;;
58101;SDS011;52034;51.926;6.320;2023-05-25T04:26:11;17.60;;;10.20;;
58101;SDS011;52034;51.926;6.320;2023-05-25T04:27:14;19.38;;;9.55;;
58101;SDS011;52034;51.926;6.320;2023-05-25T04:28:14;18.13;;;10.50;;
58101;SDS011;52034;51.926;6.320;2023-05-25T04:29:37;18.17;;;10.20;;
58101;SDS011;52034;51.926;6.320;2023-05-25T04:31:06;15.63;;;9.30;;
58101;SDS011;52034;51.926;6.320;2023-05-25T04:32:31;18.08;;;9.77;;
58101;SDS011;52034;51.926;6.320;2023-05-25T04:33:49;16.92;;;9.52;;
58101;SDS011;52034;51.926;6.320;2023-05-25T04:35:04;15.73;;;9.95;;
58101;SDS011;52034;51.926;6.320;2023-05-25T04:36:14;16.23;;;9.20;;
58101;SDS011;52034;51.926;6.320;2023-05-25T04:37:14;17.00;;;9.60;;
58101;SDS011;52034;51.926;6.320;2023-05-25T04:38:16;19.08;;;10.55;;
58101;SDS011;52034;51.926;6.320;2023-05-25T04:39:19;15.70;;;9.48;;
58101;SDS011;52034;51.926;6.320;2023-05-25T04:40:25;15.38;;;9.23;;
58101;SDS011;52034;51.926;6.320;2023-05-25T04:42:31;13.63;;;8.88;;
58101;SDS011;52034;51.926;6.320;2023-05-25T04:43:31;15.80;;;9.33;;
58101;SDS011;52034;51.926;6.320;2023-05-25T04:44:33;16.20;;;8.88;;
58101;SDS011;52034;51.926;6.320;2023-05-25T04:45:34;13.80;;;8.82;;
58101;SDS011;52034;51.926;6.320;2023-05-25T04:46:36;15.07;;;9.57;;
58101;SDS011;52034;51.926;6.320;2023-05-25T04:47:37;19.95;;;9.18;;
58101;SDS011;52034;51.926;6.320;2023-05-25T04:48:40;15.88;;;9.25;;
58101;SDS011;52034;51.926;6.320;2023-05-25T04:49:41;16.58;;;8.93;;
58101;SDS011;52034;51.926;6.320;2023-05-25T04:50:41;17.13;;;8.67;;
58101;SDS011;52034;51.926;6.320;2023-05-25T04:51:43;12.98;;;9.40;;
58101;SDS011;52034;51.926;6.320;2023-05-25T04:52:43;16.50;;;9.03;;
58101;SDS011;52034;51.926;6.320;2023-05-25T04:53:44;13.27;;;8.73;;
58101;SDS011;52034;51.926;6.320;2023-05-25T04:54:44;16.23;;;9.10;;
58101;SDS011;52034;51.926;6.320;2023-05-25T04:55:46;13.85;;;9.18;;
58101;SDS011;52034;51.926;6.320;2023-05-25T04:56:48;15.20;;;8.25;;
58101;SDS011;52034;51.926;6.320;2023-05-25T04:57:48;19.80;;;9.40;;
58101;SDS011;52034;51.926;6.320;2023-05-25T04:58:48;16.17;;;9.40;;
58101;SDS011;52034;51.926;6.320;2023-05-25T04:59:49;18.43;;;8.93;;
58101;SDS011;52034;51.926;6.320;2023-05-25T05:00:49;17.60;;;9.37;;
58101;SDS011;52034;51.926;6.320;2023-05-25T05:01:50;17.02;;;9.57;;
58101;SDS011;52034;51.926;6.320;2023-05-25T05:02:51;13.93;;;8.70;;
58101;SDS011;52034;51.926;6.320;2023-05-25T05:03:53;16.98;;;8.65;;
58101;SDS011;52034;51.926;6.320;2023-05-25T05:04:53;16.60;;;8.67;;
58101;SDS011;52034;51.926;6.320;2023-05-25T05:05:54;15.17;;;9.20;;
58101;SDS011;52034;51.926;6.320;2023-05-25T05:07:01;16.20;;;8.75;;
58101;SDS011;52034;51.926;6.320;2023-05-25T05:08:04;14.55;;;9.77;;
58101;SDS011;52034;51.926;6.320;2023-05-25T05:09:05;16.85;;;9.02;;
58101;SDS011;52034;51.926;6.320;2023-05-25T05:10:06;15.17;;;9.33;;
58101;SDS011;52034;51.926;6.320;2023-05-25T05:11:09;17.38;;;9.75;;
58101;SDS011;52034;51.926;6.320;2023-05-25T05:12:09;16.20;;;9.37;;
58101;SDS011;52034;51.926;6.320;2023-05-25T05:13:13;19.08;;;9.35;;
58101;SDS011;52034;51.926;6.320;2023-05-25T05:14:14;15.00;;;8.53;;
58101;SDS011;52034;51.926;6.320;2023-05-25T05:15:16;15.68;;;9.20;;
58101;SDS011;52034;51.926;6.320;2023-05-25T05:16:19;18.02;;;9.50;;
58101;SDS011;52034;51.926;6.320;2023-05-25T05:18:23;19.75;;;9.77;;
58101;SDS011;52034;51.926;6.320;2023-05-25T05:19:24;15.35;;;9.52;;
58101;SDS011;52034;51.926;6.320;2023-05-25T05:20:25;17.53;;;9.33;;
58101;SDS011;52034;51.926;6.320;2023-05-25T05:21:26;17.95;;;9.68;;
58101;SDS011;52034;51.926;6.320;2023-05-25T05:22:27;16.13;;;9.90;;
58101;SDS011;52034;51.926;6.320;2023-05-25T05:23:27;12.50;;;8.77;;
58101;SDS011;52034;51.926;6.320;2023-05-25T05:24:28;18.77;;;9.63;;
58101;SDS011;52034;51.926;6.320;2023-05-25T05:25:28;14.53;;;9.10;;
58101;SDS011;52034;51.926;6.320;2023-05-25T05:26:28;16.00;;;9.60;;
58101;SDS011;52034;51.926;6.320;2023-05-25T05:27:29;17.88;;;9.63;;
58101;SDS011;52034;51.926;6.320;2023-05-25T05:28:35;17.13;;;9.30;;
58101;SDS011;52034;51.926;6.320;2023-05-25T05:30:37;20.88;;;9.60;;
58101;SDS011;52034;51.926;6.320;2023-05-25T05:31:37;18.93;;;9.97;;
58101;SDS011;52034;51.926;6.320;2023-05-25T05:32:38;15.27;;;9.33;;
58101;SDS011;52034;51.926;6.320;2023-05-25T05:33:38;18.80;;;10.13;;
58101;SDS011;52034;51.926;6.320;2023-05-25T05:34:39;16.07;;;9.13;;
58101;SDS011;52034;51.926;6.320;2023-05-25T05:35:46;14.18;;;9.10;;
58101;SDS011;52034;51.926;6.320;2023-05-25T05:36:57;20.08;;;9.93;;
58101;SDS011;52034;51.926;6.320;2023-05-25T05:38:00;13.50;;;9.52;;
58101;SDS011;52034;51.926;6.320;2023-05-25T05:39:00;17.50;;;9.83;;
58101;SDS011;52034;51.926;6.320;2023-05-25T05:40:02;16.50;;;9.25;;
58101;SDS011;52034;51.926;6.320;2023-05-25T05:41:04;18.40;;;9.07;;
58101;SDS011;52034;51.926;6.320;2023-05-25T05:42:10;18.00;;;9.20;;
58101;SDS011;52034;51.926;6.320;2023-05-25T05:43:11;24.00;;;10.40;;
58101;SDS011;52034;51.926;6.320;2023-05-25T05:44:12;16.17;;;8.50;;
58101;SDS011;52034;51.926;6.320;2023-05-25T05:45:13;15.23;;;9.03;;
58101;SDS011;52034;51.926;6.320;2023-05-25T05:46:13;15.23;;;8.77;;
58101;SDS011;52034;51.926;6.320;2023-05-25T05:47:14;19.00;;;9.80;;
58101;SDS011;52034;51.926;6.320;2023-05-25T05:48:14;17.37;;;9.43;;
58101;SDS011;52034;51.926;6.320;2023-05-25T05:49:15;17.13;;;9.00;;
58101;SDS011;52034;51.926;6.320;2023-05-25T05:50:15;16.60;;;8.60;;
58101;SDS011;52034;51.926;6.320;2023-05-25T05:51:16;18.33;;;9.07;;
58101;SDS011;52034;51.926;6.320;2023-05-25T05:52:17;13.55;;;8.43;;
58101;SDS011;52034;51.926;6.320;2023-05-25T05:53:17;17.33;;;9.00;;
58101;SDS011;52034;51.926;6.320;2023-05-25T05:54:18;14.57;;;8.27;;
58101;SDS011;52034;51.926;6.320;2023-05-25T05:55:18;15.63;;;8.90;;
58101;SDS011;52034;51.926;6.320;2023-05-25T05:56:20;16.45;;;8.80;;
58101;SDS011;52034;51.926;6.320;2023-05-25T05:57:21;16.17;;;9.10;;
58101;SDS011;52034;51.926;6.320;2023-05-25T05:58:21;18.17;;;8.90;;
58101;SDS011;52034;51.926;6.320;2023-05-25T05:59:22;19.73;;;9.07;;
58101;SDS011;52034;51.926;6.320;2023-05-25T06:00:23;17.53;;;9.07;;
58101;SDS011;52034;51.926;6.320;2023-05-25T06:02:25;21.05;;;10.55;;
58101;SDS011;52034;51.926;6.320;2023-05-25T06:03:25;15.03;;;9.00;;
58101;SDS011;52034;51.926;6.320;2023-05-25T06:04:29;17.73;;;9.40;;
58101;SDS011;52034;51.926;6.320;2023-05-25T06:05:31;23.45;;;10.13;;
58101;SDS011;52034;51.926;6.320;2023-05-25T06:06:33;16.35;;;9.73;;
58101;SDS011;52034;51.926;6.320;2023-05-25T06:07:34;20.42;;;9.52;;
58101;SDS011;52034;51.926;6.320;2023-05-25T06:08:34;18.47;;;9.17;;
58101;SDS011;52034;51.926;6.320;2023-05-25T06:09:35;13.67;;;9.00;;
58101;SDS011;52034;51.926;6.320;2023-05-25T06:10:35;18.83;;;9.40;;
58101;SDS011;52034;51.926;6.320;2023-05-25T06:11:36;22.10;;;10.03;;
58101;SDS011;52034;51.926;6.320;2023-05-25T06:12:38;18.35;;;9.43;;
58101;SDS011;52034;51.926;6.320;2023-05-25T06:13:39;19.20;;;9.75;;
58101;SDS011;52034;51.926;6.320;2023-05-25T06:14:40;19.37;;;9.67;;
58101;SDS011;52034;51.926;6.320;2023-05-25T06:15:41;16.27;;;9.57;;
58101;SDS011;52034;51.926;6.320;2023-05-25T06:16:45;15.93;;;9.63;;
58101;SDS011;52034;51.926;6.320;2023-05-25T06:17:45;17.73;;;9.43;;